Airport ID:KSMD
Update Time (UTC):22/07/2019 18:51
Wind Speed (Knots):10
Wind Direction (Magnetic):340
Temperature (°C):23.2
Dew Point (°C):16.5
Humidity (%):64.2
Altimeter (inHg):29.98
Density Altitude (Feet):02200
Visibility (Miles):10
Clouds (Hundreds of feet):CLR
Present Weather:
METAR:METAR KSMD 221850Z AUTO 33010KT 10SM CLR 23/16 A2999 RMK A01

The data displayed is for advisory purposes only and is not to be used for flight planning or operations.

This page is not automatically refreshed. Reload the page to see current data.